createdAt,value
2018-10-11T00:02:26.133Z,70.40
2018-10-11T00:04:54.128Z,70.50
2018-10-11T00:07:22.109Z,70.40
2018-10-11T00:09:49.873Z,70.50
2018-10-11T00:12:17.799Z,70.40
2018-10-11T00:14:45.870Z,70.50
2018-10-11T00:17:13.691Z,70.40
2018-10-11T00:19:41.512Z,70.50
2018-10-11T00:22:09.355Z,70.40
2018-10-11T00:24:37.178Z,70.40
2018-10-11T00:27:05.085Z,70.50
2018-10-11T00:29:32.775Z,70.50
2018-10-11T00:32:00.417Z,70.40
2018-10-11T00:34:28.069Z,70.40
2018-10-11T00:36:55.698Z,70.50
2018-10-11T00:39:23.539Z,70.60
2018-10-11T00:41:51.308Z,70.60
2018-10-11T00:44:18.974Z,70.50
2018-10-11T00:46:47.935Z,70.40
2018-10-11T00:49:16.100Z,70.40
2018-10-11T00:51:43.776Z,70.50
2018-10-11T00:54:11.432Z,70.50
2018-10-11T00:56:39.315Z,70.40
2018-10-11T00:59:08.208Z,70.50
2018-10-11T01:01:36.088Z,70.50
2018-10-11T01:04:03.661Z,70.60
2018-10-11T01:06:31.247Z,70.50
2018-10-11T01:08:58.848Z,70.50
2018-10-11T01:11:26.476Z,70.40
2018-10-11T01:13:54.817Z,70.50
2018-10-11T01:16:22.501Z,70.50
2018-10-11T01:18:50.483Z,70.40
2018-10-11T01:21:18.626Z,70.50
2018-10-11T01:23:46.727Z,70.40
2018-10-11T01:26:14.976Z,70.30
2018-10-11T01:28:42.660Z,70.40
2018-10-11T01:31:16.146Z,70.40
2018-10-11T01:33:43.933Z,70.40
2018-10-11T01:36:11.879Z,70.20
2018-10-11T01:38:39.533Z,70.30
2018-10-11T01:41:08.199Z,70.30
2018-10-11T01:43:35.907Z,70.30
2018-10-11T01:46:03.504Z,70.20
2018-10-11T01:48:31.188Z,70.20
2018-10-11T01:50:58.813Z,70.30
2018-10-11T01:53:26.439Z,70.20
2018-10-11T01:55:54.322Z,70.20
2018-10-11T01:58:22.432Z,70.20
2018-10-11T02:00:50.417Z,70.20
2018-10-11T02:03:18.266Z,70.10
2018-10-11T02:05:46.027Z,70.10
2018-10-11T02:08:13.965Z,70.10
2018-10-11T02:10:41.851Z,70.10
2018-10-11T02:13:09.782Z,70.10
2018-10-11T02:15:37.452Z,70.00
2018-10-11T02:18:05.130Z,70.00
2018-10-11T02:20:32.763Z,70.00
2018-10-11T02:23:00.397Z,70.00
2018-10-11T02:25:28.125Z,69.60
2018-10-11T02:27:55.827Z,70.00
2018-10-11T02:30:23.807Z,70.10
2018-10-11T02:32:51.670Z,70.10
2018-10-11T02:35:19.463Z,70.20
2018-10-11T02:37:47.954Z,70.20
2018-10-11T02:40:15.712Z,70.20
2018-10-11T02:42:43.350Z,70.20
2018-10-11T02:45:10.977Z,70.10
2018-10-11T02:47:38.802Z,70.10
2018-10-11T02:50:06.627Z,70.10
2018-10-11T02:52:34.234Z,70.00
2018-10-11T02:55:01.869Z,70.10
2018-10-11T02:57:35.158Z,70.00
2018-10-11T03:00:02.851Z,70.10
2018-10-11T03:02:30.488Z,70.20
2018-10-11T03:04:58.095Z,70.20
2018-10-11T03:07:26.531Z,71.10
2018-10-11T03:09:54.319Z,70.20
2018-10-11T03:12:22.342Z,70.30
2018-10-11T03:14:50.400Z,70.20
2018-10-11T03:17:18.275Z,70.10
2018-10-11T03:19:46.481Z,70.20
2018-10-11T03:22:14.176Z,70.10
2018-10-11T03:24:42.248Z,70.10
2018-10-11T03:27:09.915Z,70.20
2018-10-11T03:29:37.551Z,70.30
2018-10-11T03:32:05.276Z,70.20
2018-10-11T03:34:32.889Z,70.40
2018-10-11T03:37:00.617Z,70.40
2018-10-11T03:39:29.057Z,70.40
2018-10-11T03:41:58.304Z,70.30
2018-10-11T03:44:26.454Z,70.20
2018-10-11T03:46:54.092Z,70.30
2018-10-11T03:49:21.741Z,70.30
2018-10-11T03:51:49.615Z,70.30
2018-10-11T03:54:17.953Z,70.20
2018-10-11T03:56:46.130Z,70.20
2018-10-11T03:59:14.007Z,70.20
2018-10-11T04:01:41.722Z,70.20
2018-10-11T04:04:09.395Z,70.20
2018-10-11T04:06:37.090Z,70.20
2018-10-11T04:09:05.468Z,70.20
2018-10-11T04:11:33.033Z,70.00
2018-10-11T04:14:00.632Z,70.00
2018-10-11T04:16:28.171Z,69.90
2018-10-11T04:18:55.776Z,69.80
2018-10-11T04:21:23.418Z,69.70
2018-10-11T04:23:51.179Z,69.70
2018-10-11T04:26:18.802Z,69.70
2018-10-11T04:28:46.471Z,69.60
2018-10-11T04:31:14.240Z,69.50
2018-10-11T04:33:42.211Z,69.40
2018-10-11T04:36:10.099Z,69.40
2018-10-11T04:38:37.694Z,69.40
2018-10-11T04:41:05.697Z,69.40
2018-10-11T04:43:33.438Z,69.30
2018-10-11T04:46:01.027Z,69.20
2018-10-11T04:48:28.601Z,69.20
2018-10-11T04:50:56.612Z,69.20
2018-10-11T04:53:24.241Z,69.20
2018-10-11T04:55:52.094Z,69.10
2018-10-11T04:58:20.142Z,69.10
2018-10-11T05:00:47.684Z,69.10
2018-10-11T05:03:15.440Z,69.00
2018-10-11T05:05:43.734Z,68.90
2018-10-11T05:08:12.722Z,69.00
2018-10-11T05:10:41.564Z,69.00
2018-10-11T05:13:09.684Z,68.90
2018-10-11T05:15:37.796Z,68.80
2018-10-11T05:18:06.354Z,68.80
2018-10-11T05:20:34.181Z,68.80
2018-10-11T05:23:01.842Z,68.80
2018-10-11T05:25:29.532Z,68.80
2018-10-11T05:27:57.169Z,68.80
2018-10-11T05:30:25.299Z,68.70
2018-10-11T05:32:52.973Z,68.60
2018-10-11T05:35:20.708Z,68.50
2018-10-11T05:37:48.248Z,68.50
2018-10-11T05:40:16.099Z,68.50
2018-10-11T05:42:44.260Z,68.40
2018-10-11T05:45:21.134Z,68.40
2018-10-11T05:47:48.944Z,68.40
2018-10-11T05:50:16.890Z,68.40
2018-10-11T05:52:44.793Z,68.30
2018-10-11T05:55:13.011Z,68.30
2018-10-11T05:57:40.883Z,68.30
2018-10-11T06:00:09.488Z,68.30
2018-10-11T06:02:41.874Z,68.30
2018-10-11T06:05:09.604Z,69.10
2018-10-11T06:07:37.158Z,68.40
2018-10-11T06:10:04.842Z,68.40
2018-10-11T06:12:32.634Z,68.20
2018-10-11T06:15:00.353Z,68.30
2018-10-11T06:17:27.890Z,68.30
2018-10-11T06:19:55.455Z,68.70
2018-10-11T06:22:23.004Z,68.40
2018-10-11T06:24:50.650Z,68.30
2018-10-11T06:27:18.104Z,68.20
2018-10-11T06:29:45.689Z,68.10
2018-10-11T06:32:13.414Z,68.00
2018-10-11T06:34:40.998Z,68.00
2018-10-11T06:37:08.581Z,68.00
2018-10-11T06:39:36.204Z,68.00
2018-10-11T06:42:03.829Z,68.00
2018-10-11T06:44:31.546Z,68.00
2018-10-11T06:46:59.400Z,68.00
2018-10-11T06:49:27.185Z,67.90
2018-10-11T06:51:55.389Z,68.50
2018-10-11T06:54:23.256Z,67.80
2018-10-11T06:56:51.263Z,67.80
2018-10-11T06:59:19.251Z,67.80
2018-10-11T07:01:47.012Z,67.70
2018-10-11T07:04:14.779Z,67.70
2018-10-11T07:06:42.356Z,67.70
2018-10-11T07:09:09.961Z,67.70
2018-10-11T07:11:37.532Z,67.70
2018-10-11T07:14:05.135Z,67.70
2018-10-11T07:16:32.710Z,67.70
2018-10-11T07:19:00.260Z,67.70
2018-10-11T07:21:28.015Z,67.70
2018-10-11T07:23:55.773Z,67.70
2018-10-11T07:26:23.843Z,67.60
2018-10-11T07:28:51.916Z,67.50
2018-10-11T07:31:20.755Z,67.50
2018-10-11T07:33:48.654Z,67.40
2018-10-11T07:36:16.318Z,67.40
2018-10-11T07:38:44.044Z,67.40
2018-10-11T07:41:11.749Z,67.40
2018-10-11T07:43:39.313Z,67.30
2018-10-11T07:46:06.973Z,67.40
2018-10-11T07:48:34.529Z,67.30
2018-10-11T07:51:03.017Z,67.30
2018-10-11T07:53:30.578Z,67.20
2018-10-11T07:55:58.627Z,67.20
2018-10-11T07:58:26.736Z,67.10
2018-10-11T08:00:54.842Z,67.30
2018-10-11T08:03:23.353Z,67.30
2018-10-11T08:05:51.718Z,67.10
2018-10-11T08:08:19.797Z,67.10
2018-10-11T08:10:47.576Z,67.20
2018-10-11T08:13:15.126Z,67.20
2018-10-11T08:15:42.789Z,67.10
2018-10-11T08:18:10.402Z,67.10
2018-10-11T08:20:38.172Z,67.10
2018-10-11T08:23:05.777Z,67.10
2018-10-11T08:25:33.951Z,67.00
2018-10-11T08:28:01.307Z,67.10
2018-10-11T08:30:29.186Z,67.10
2018-10-11T08:32:57.206Z,67.00
2018-10-11T08:35:25.224Z,66.90
2018-10-11T08:37:53.581Z,67.00
2018-10-11T08:40:21.582Z,67.00
2018-10-11T08:42:49.416Z,67.10
2018-10-11T08:45:17.237Z,67.10
2018-10-11T08:47:44.804Z,67.00
2018-10-11T08:50:12.394Z,67.00
2018-10-11T08:52:40.042Z,67.00
2018-10-11T08:55:07.603Z,67.00
2018-10-11T08:57:35.262Z,66.90
2018-10-11T09:00:02.858Z,66.80
2018-10-11T09:02:30.594Z,66.80
2018-10-11T09:04:58.235Z,66.70
2018-10-11T09:07:26.106Z,66.80
2018-10-11T09:09:53.994Z,66.70
2018-10-11T09:12:22.252Z,66.70
2018-10-11T09:14:50.578Z,66.70
2018-10-11T09:17:18.345Z,66.80
2018-10-11T09:19:46.078Z,66.70
2018-10-11T09:22:13.793Z,66.90
2018-10-11T09:24:41.393Z,66.80
2018-10-11T09:27:08.950Z,66.80
2018-10-11T09:29:36.538Z,66.90
2018-10-11T09:32:04.168Z,66.80
2018-10-11T09:34:32.214Z,66.80
2018-10-11T09:37:00.138Z,67.10
2018-10-11T09:39:28.315Z,66.70
2018-10-11T09:41:56.235Z,66.70
2018-10-11T09:44:24.366Z,66.70
2018-10-11T09:46:52.522Z,66.70
2018-10-11T09:49:20.571Z,66.70
2018-10-11T09:51:48.248Z,66.70
2018-10-11T09:54:15.857Z,66.70
2018-10-11T09:57:17.943Z,66.70
2018-10-11T09:59:45.530Z,66.70
2018-10-11T10:02:13.979Z,66.80
2018-10-11T10:04:43.533Z,66.90
2018-10-11T10:07:11.532Z,66.90
2018-10-11T10:09:39.280Z,66.90
2018-10-11T10:12:07.691Z,66.30
2018-10-11T10:14:35.127Z,66.80
2018-10-11T10:17:02.729Z,66.80
2018-10-11T10:19:30.347Z,66.80
2018-10-11T10:21:58.039Z,66.80
2018-10-11T10:24:25.830Z,66.80
2018-10-11T10:26:53.948Z,66.90
2018-10-11T10:29:22.021Z,66.90
2018-10-11T10:31:50.196Z,66.90
2018-10-11T10:34:17.815Z,66.80
2018-10-11T10:36:45.340Z,67.00
2018-10-11T10:39:12.920Z,66.90
2018-10-11T10:41:40.465Z,67.00
2018-10-11T10:44:08.032Z,66.90
2018-10-11T10:46:36.224Z,66.90
2018-10-11T10:49:03.776Z,66.90
2018-10-11T10:51:31.703Z,67.60
2018-10-11T10:53:59.343Z,66.90
2018-10-11T10:56:27.176Z,67.00
2018-10-11T10:58:55.243Z,67.00
2018-10-11T11:01:24.019Z,67.00
2018-10-11T11:03:51.935Z,67.00
2018-10-11T11:06:20.176Z,67.10
2018-10-11T11:08:48.376Z,67.30
2018-10-11T11:11:16.553Z,67.30
2018-10-11T11:13:44.231Z,67.30
2018-10-11T11:16:12.380Z,67.40
2018-10-11T11:18:39.938Z,67.30
2018-10-11T11:21:07.968Z,67.30
2018-10-11T11:23:35.508Z,67.40
2018-10-11T11:26:03.197Z,67.40
2018-10-11T11:28:30.776Z,67.30
2018-10-11T11:30:58.420Z,67.30
2018-10-11T11:33:26.052Z,67.40
2018-10-11T11:35:53.797Z,67.40
2018-10-11T11:38:21.546Z,67.40
2018-10-11T11:40:49.196Z,67.40
2018-10-11T11:43:16.892Z,67.40
2018-10-11T11:45:44.573Z,67.40
2018-10-11T11:48:12.175Z,68.10
2018-10-11T11:50:40.022Z,67.30
2018-10-11T11:53:07.568Z,67.30
2018-10-11T11:55:35.233Z,67.40
2018-10-11T11:58:02.878Z,67.40
2018-10-11T12:00:30.668Z,67.40
2018-10-11T12:03:00.017Z,67.30
2018-10-11T12:05:27.828Z,67.30
2018-10-11T12:07:55.472Z,67.40
2018-10-11T12:10:23.358Z,67.50
2018-10-11T12:12:51.897Z,67.40
2018-10-11T12:15:20.797Z,67.40
2018-10-11T12:17:48.429Z,67.40
2018-10-11T12:20:15.985Z,67.40
2018-10-11T12:22:43.578Z,67.50
2018-10-11T12:25:11.236Z,67.50
2018-10-11T12:27:38.825Z,67.40
2018-10-11T12:30:06.487Z,67.40
2018-10-11T12:32:34.222Z,67.40
2018-10-11T12:35:01.770Z,67.50
2018-10-11T12:37:29.364Z,67.50
2018-10-11T12:39:57.614Z,67.50
2018-10-11T12:42:25.470Z,67.60
2018-10-11T12:44:53.257Z,67.50
2018-10-11T12:47:21.435Z,67.50
2018-10-11T12:49:49.465Z,67.60
2018-10-11T12:52:16.911Z,67.50
2018-10-11T12:54:44.480Z,67.60
2018-10-11T12:57:17.169Z,67.60
2018-10-11T12:59:39.822Z,67.70
2018-10-11T13:02:07.432Z,67.60
2018-10-11T13:04:35.475Z,67.70
2018-10-11T13:07:03.412Z,67.70
2018-10-11T13:09:31.111Z,67.60
2018-10-11T13:11:58.691Z,68.40
2018-10-11T13:14:26.372Z,67.70
2018-10-11T13:16:54.167Z,67.70
2018-10-11T13:19:22.026Z,67.80
2018-10-11T13:21:49.944Z,67.70
2018-10-11T13:24:17.542Z,67.70
2018-10-11T13:26:45.091Z,67.70
2018-10-11T13:29:12.655Z,67.70
2018-10-11T13:31:40.247Z,67.60
2018-10-11T13:34:08.111Z,67.60
2018-10-11T13:36:35.719Z,67.70
2018-10-11T13:39:03.792Z,67.50
2018-10-11T13:41:31.471Z,67.60
2018-10-11T13:43:58.976Z,67.50
2018-10-11T13:46:26.630Z,67.50
2018-10-11T13:48:54.459Z,67.50
2018-10-11T13:51:22.069Z,67.50
2018-10-11T13:53:55.480Z,67.60
2018-10-11T13:56:17.395Z,67.50
2018-10-11T13:58:44.990Z,67.50
2018-10-11T14:01:12.695Z,67.50
2018-10-11T14:03:40.307Z,67.50
2018-10-11T14:06:07.872Z,67.50
2018-10-11T14:08:35.612Z,67.60
2018-10-11T14:11:03.247Z,68.40
2018-10-11T14:13:30.862Z,67.70
2018-10-11T14:15:58.692Z,67.70
2018-10-11T14:18:26.572Z,67.80
2018-10-11T14:20:54.506Z,67.70
2018-10-11T14:23:22.575Z,67.80
2018-10-11T14:25:50.548Z,67.80
2018-10-11T14:28:18.139Z,67.80
2018-10-11T14:30:45.704Z,67.80
2018-10-11T14:33:13.292Z,67.80
2018-10-11T14:35:40.904Z,67.80
2018-10-11T14:38:08.587Z,67.90
2018-10-11T14:40:36.144Z,67.80
2018-10-11T14:43:03.708Z,67.80
2018-10-11T14:45:31.416Z,67.80
2018-10-11T14:47:59.060Z,67.70
2018-10-11T14:50:26.849Z,67.60
2018-10-11T14:52:54.892Z,67.60
2018-10-11T14:55:23.076Z,67.50
2018-10-11T14:57:51.099Z,67.50
2018-10-11T15:00:18.773Z,67.70
2018-10-11T15:02:46.434Z,67.50
2018-10-11T15:05:13.991Z,67.50
2018-10-11T15:07:41.506Z,67.60
2018-10-11T15:10:09.099Z,67.50
2018-10-11T15:12:36.694Z,67.60
2018-10-11T15:15:04.403Z,67.50
2018-10-11T15:17:31.993Z,67.50
2018-10-11T15:19:59.589Z,67.50
2018-10-11T15:22:27.383Z,67.50
2018-10-11T15:24:55.298Z,67.50
2018-10-11T15:27:23.428Z,67.40
2018-10-11T15:29:51.429Z,67.40
2018-10-11T15:32:19.057Z,67.50
2018-10-11T15:34:46.688Z,67.50
2018-10-11T15:37:14.255Z,67.40
2018-10-11T15:39:41.797Z,67.40
2018-10-11T15:42:09.367Z,67.30
2018-10-11T15:44:36.916Z,67.40
2018-10-11T15:47:04.476Z,67.40
2018-10-11T15:49:32.325Z,67.30
2018-10-11T15:52:00.114Z,67.40
2018-10-11T15:54:27.822Z,67.30
2018-10-11T15:56:55.568Z,67.30
2018-10-11T15:59:23.560Z,67.30
2018-10-11T16:01:51.355Z,67.30
2018-10-11T16:04:19.541Z,67.20
2018-10-11T16:06:47.144Z,67.20
2018-10-11T16:09:14.781Z,67.20
2018-10-11T16:11:42.293Z,67.20
2018-10-11T16:14:09.874Z,67.20
2018-10-11T16:16:39.501Z,67.30
2018-10-11T16:19:07.168Z,67.30
2018-10-11T16:21:34.764Z,67.20
2018-10-11T16:24:02.654Z,67.30
2018-10-11T16:26:30.293Z,67.20
2018-10-11T16:28:58.224Z,67.20
2018-10-11T16:31:26.050Z,67.20
2018-10-11T16:33:53.941Z,67.20
2018-10-11T16:36:22.041Z,67.20
2018-10-11T16:38:49.977Z,67.20
2018-10-11T16:41:17.610Z,67.20
2018-10-11T16:43:45.426Z,67.20
2018-10-11T16:46:13.035Z,67.20
2018-10-11T16:48:40.634Z,67.10
2018-10-11T16:51:08.171Z,67.10
2018-10-11T16:53:35.731Z,67.10
2018-10-11T16:56:03.263Z,67.10
2018-10-11T16:58:30.829Z,67.10
2018-10-11T17:00:58.411Z,67.30
2018-10-11T17:03:26.060Z,67.20
2018-10-11T17:05:53.846Z,67.40
2018-10-11T17:08:21.752Z,67.40
2018-10-11T17:10:49.384Z,67.40
2018-10-11T17:13:16.963Z,67.50
2018-10-11T17:15:44.527Z,67.40
2018-10-11T17:18:12.185Z,67.50
2018-10-11T17:20:39.764Z,67.50
2018-10-11T17:23:07.395Z,67.50
2018-10-11T17:25:34.995Z,67.70
2018-10-11T17:28:02.634Z,67.70
2018-10-11T17:30:30.456Z,67.70
2018-10-11T17:32:58.206Z,67.80
2018-10-11T17:35:26.013Z,67.80
2018-10-11T17:37:53.806Z,67.90
2018-10-11T17:40:22.134Z,67.90
2018-10-11T17:42:50.025Z,67.90
2018-10-11T17:45:17.580Z,68.00
2018-10-11T17:47:45.182Z,68.00
2018-10-11T17:50:12.810Z,68.00
2018-10-11T17:52:40.284Z,68.00
2018-10-11T17:55:07.868Z,68.00
2018-10-11T17:57:35.425Z,68.80
2018-10-11T18:00:02.995Z,68.00
2018-10-11T18:02:30.669Z,68.00
2018-10-11T18:04:58.496Z,68.00
2018-10-11T18:07:26.272Z,68.00
2018-10-11T18:09:54.654Z,68.00
2018-10-11T18:12:22.589Z,67.90
2018-10-11T18:14:50.861Z,67.90
2018-10-11T18:17:19.692Z,67.80
2018-10-11T18:19:47.493Z,67.80
2018-10-11T18:22:17.528Z,67.80
2018-10-11T18:24:45.626Z,67.80
2018-10-11T18:27:13.239Z,67.50
2018-10-11T18:29:40.992Z,67.50
2018-10-11T18:32:08.552Z,67.40
2018-10-11T18:34:36.112Z,67.40
2018-10-11T18:37:03.776Z,67.40
2018-10-11T18:39:31.335Z,67.40
2018-10-11T18:41:59.067Z,67.30
2018-10-11T18:44:27.117Z,67.20
2018-10-11T18:46:54.944Z,67.20
2018-10-11T18:49:22.967Z,67.20
2018-10-11T18:51:50.977Z,67.20
2018-10-11T18:54:18.631Z,67.20
2018-10-11T18:56:47.156Z,67.20
2018-10-11T18:59:14.780Z,67.20
2018-10-11T19:01:44.880Z,67.30
2018-10-11T19:04:12.506Z,67.40
2018-10-11T19:06:40.070Z,67.40
2018-10-11T19:09:08.165Z,67.50
2018-10-11T19:11:39.659Z,67.50
2018-10-11T19:14:07.415Z,67.50
2018-10-11T19:16:35.065Z,67.50
2018-10-11T19:19:03.718Z,67.50
2018-10-11T19:21:31.381Z,67.50
2018-10-11T19:23:59.014Z,67.60
2018-10-11T19:26:27.616Z,67.50
2018-10-11T19:28:55.424Z,67.50
2018-10-11T19:31:23.434Z,67.60
2018-10-11T19:33:51.415Z,67.50
2018-10-11T19:36:19.328Z,67.50
2018-10-11T19:38:47.040Z,67.60
2018-10-11T19:41:14.910Z,67.70
2018-10-11T19:43:43.654Z,68.40
2018-10-11T19:46:11.430Z,67.70
2018-10-11T19:48:39.062Z,67.70
2018-10-11T19:51:07.332Z,67.70
2018-10-11T19:53:34.935Z,67.80
2018-10-11T19:56:02.649Z,67.70
2018-10-11T19:58:30.239Z,67.70
2018-10-11T20:00:57.847Z,67.90
2018-10-11T20:03:25.532Z,67.80
2018-10-11T20:05:53.315Z,67.90
2018-10-11T20:08:21.194Z,67.90
2018-10-11T20:10:48.868Z,68.00
2018-10-11T20:13:17.449Z,68.00
2018-10-11T20:15:45.113Z,68.00
2018-10-11T20:18:12.680Z,68.10
2018-10-11T20:20:40.372Z,68.00
2018-10-11T20:23:07.980Z,68.00
2018-10-11T20:25:35.535Z,68.10
2018-10-11T20:28:03.128Z,68.10
2018-10-11T20:30:30.770Z,68.10
2018-10-11T20:32:58.559Z,68.10
2018-10-11T20:35:26.227Z,68.20
2018-10-11T20:37:53.986Z,68.20
2018-10-11T20:40:21.980Z,68.20
2018-10-11T20:42:50.329Z,68.20
2018-10-11T20:45:17.911Z,68.30
2018-10-11T20:47:45.455Z,68.30
2018-10-11T20:50:13.019Z,68.90
2018-10-11T20:52:40.648Z,68.30
2018-10-11T20:55:08.235Z,68.30
2018-10-11T20:57:35.900Z,68.30
2018-10-11T21:00:03.568Z,68.40
2018-10-11T21:02:31.145Z,68.40
2018-10-11T21:04:58.782Z,68.50
2018-10-11T21:07:26.547Z,68.40
2018-10-11T21:09:54.237Z,68.40
2018-10-11T21:12:22.056Z,68.40
2018-10-11T21:14:50.381Z,68.40
2018-10-11T21:17:17.990Z,68.40
2018-10-11T21:19:45.632Z,68.50
2018-10-11T21:22:13.238Z,68.50
2018-10-11T21:24:40.825Z,68.40
2018-10-11T21:27:08.500Z,68.50
2018-10-11T21:29:36.115Z,68.40
2018-10-11T21:32:03.667Z,68.50
2018-10-11T21:34:31.304Z,68.50
2018-10-11T21:36:58.870Z,68.50
2018-10-11T21:39:27.235Z,68.50
2018-10-11T21:41:55.151Z,68.60
2018-10-11T21:44:22.988Z,68.60
2018-10-11T21:46:50.787Z,68.60
2018-10-11T21:49:18.380Z,68.60
2018-10-11T21:51:46.019Z,68.60
2018-10-11T21:54:15.608Z,68.70
2018-10-11T21:56:43.165Z,68.80
2018-10-11T21:59:10.717Z,68.70
2018-10-11T22:01:38.318Z,68.70
2018-10-11T22:04:05.891Z,68.80
2018-10-11T22:06:33.486Z,68.80
2018-10-11T22:09:01.053Z,68.80
2018-10-11T22:11:28.672Z,68.80
2018-10-11T22:13:56.288Z,68.90
2018-10-11T22:16:24.292Z,69.10
2018-10-11T22:18:52.093Z,68.90
2018-10-11T22:21:20.753Z,69.10
2018-10-11T22:23:48.280Z,69.10
2018-10-11T22:26:15.832Z,69.10
2018-10-11T22:28:43.481Z,69.10
2018-10-11T22:31:12.586Z,69.20
2018-10-11T22:33:40.745Z,69.20
2018-10-11T22:36:08.615Z,69.30
2018-10-11T22:38:36.213Z,69.30
2018-10-11T22:41:03.829Z,69.40
2018-10-11T22:43:31.440Z,69.50
2018-10-11T22:45:59.002Z,69.40
2018-10-11T22:48:26.844Z,69.40
2018-10-11T22:50:54.736Z,69.50
2018-10-11T22:53:22.717Z,69.40
2018-10-11T22:55:50.836Z,69.50
2018-10-11T22:58:18.595Z,69.40
2018-10-11T23:00:46.144Z,69.50
2018-10-11T23:03:13.711Z,69.50
2018-10-11T23:05:41.344Z,69.50
2018-10-11T23:08:08.881Z,69.40
2018-10-11T23:10:36.449Z,69.60
2018-10-11T23:13:04.106Z,69.50
2018-10-11T23:15:31.669Z,69.50
2018-10-11T23:17:59.248Z,69.60
2018-10-11T23:20:26.839Z,69.60
2018-10-11T23:22:54.761Z,69.60
2018-10-11T23:25:22.851Z,69.50
2018-10-11T23:27:50.764Z,69.60
2018-10-11T23:30:18.500Z,69.50
2018-10-11T23:32:46.075Z,69.50
2018-10-11T23:35:13.705Z,69.50
2018-10-11T23:37:41.338Z,69.60
2018-10-11T23:40:09.876Z,69.60
2018-10-11T23:42:37.833Z,69.60
2018-10-11T23:45:05.625Z,69.60
2018-10-11T23:47:33.197Z,69.70
2018-10-11T23:50:00.781Z,69.70
2018-10-11T23:52:28.372Z,69.70
2018-10-11T23:54:56.494Z,69.70
2018-10-11T23:57:24.196Z,69.80
2018-10-11T23:59:51.901Z,69.80
